Time;durP1;ratioP1;P1;durP2;ratioP2;P2;SDS_P1;SDS_P2;PMS_P1;PMS_P2;Temp;Humidity;BMP_temperature;BMP_pressure;BME280_temperature;BME280_humidity;BME280_pressure;Samples;Min_cycle;Max_cycle;Signal;HPM_P1;HPM_P2
2021/04/15 00:00:32;;;;;;;1.40;1.27;;;;;;;;;;5066487;28;20347;-51
2021/04/15 00:03:00;;;;;;;2.13;1.50;;;;;;;;;;5069227;28;20051;-49
2021/04/15 00:05:28;;;;;;;2.45;1.42;;;;;;;;;;5067814;28;20132;-47
2021/04/15 00:07:55;;;;;;;3.28;1.40;;;;;;;;;;5068093;28;20128;-49
2021/04/15 00:10:25;;;;;;;4.50;1.73;;;;;;;;;;5066391;28;20075;-49
2021/04/15 00:12:51;;;;;;;3.53;1.40;;;;;;;;;;5068021;28;20407;-48
2021/04/15 00:15:17;;;;;;;3.03;1.55;;;;;;;;;;5067733;28;20484;-48
2021/04/15 00:17:43;;;;;;;2.17;1.50;;;;;;;;;;5067419;28;20098;-55
2021/04/15 00:20:10;;;;;;;2.55;1.40;;;;;;;;;;5067810;28;20044;-49
2021/04/15 00:22:36;;;;;;;3.22;1.30;;;;;;;;;;5066209;28;20037;-50
2021/04/15 00:25:03;;;;;;;3.17;1.40;;;;;;;;;;5066337;28;20094;-47
2021/04/15 00:27:30;;;;;;;1.95;1.33;;;;;;;;;;5067758;28;20115;-49
2021/04/15 00:29:56;;;;;;;5.68;1.85;;;;;;;;;;5067963;28;20060;-49
2021/04/15 00:32:22;;;;;;;3.75;1.52;;;;;;;;;;5065928;28;20141;-51
2021/04/15 00:34:49;;;;;;;3.72;1.45;;;;;;;;;;5067279;28;20040;-50
2021/04/15 00:37:16;;;;;;;2.80;1.60;;;;;;;;;;5066900;28;20090;-49
2021/04/15 00:39:42;;;;;;;3.07;1.50;;;;;;;;;;5066012;28;20848;-48
2021/04/15 00:42:08;;;;;;;2.10;1.50;;;;;;;;;;5065641;28;20050;-48
2021/04/15 00:44:34;;;;;;;2.65;1.30;;;;;;;;;;5068507;28;20045;-49
2021/04/15 00:47:05;;;;;;;2.10;1.40;;;;;;;;;;5066835;28;20036;-52
2021/04/15 00:49:32;;;;;;;4.38;1.80;;;;;;;;;;5065454;28;20051;-51
2021/04/15 00:52:02;;;;;;;3.25;1.50;;;;;;;;;;5066932;28;20072;-48
2021/04/15 00:54:31;;;;;;;2.22;1.27;;;;;;;;;;5065142;28;20094;-49
2021/04/15 00:56:58;;;;;;;3.08;1.60;;;;;;;;;;5067223;28;20040;-52
2021/04/15 00:59:25;;;;;;;3.90;1.73;;;;;;;;;;5067522;28;20097;-50
2021/04/15 01:01:52;;;;;;;3.42;1.25;;;;;;;;;;5066553;28;20109;-51
2021/04/15 01:04:20;;;;;;;4.53;1.90;;;;;;;;;;5065972;28;20067;-51
2021/04/15 01:06:48;;;;;;;2.00;1.38;;;;;;;;;;5067060;28;20454;-50
2021/04/15 01:09:14;;;;;;;3.75;1.45;;;;;;;;;;5066748;28;20049;-48
2021/04/15 01:11:41;;;;;;;3.63;1.50;;;;;;;;;;5066284;28;20044;-47
2021/04/15 01:14:25;;;;;;;3.05;1.40;;;;;;;;;;5065033;28;20127;-49
2021/04/15 01:17:15;;;;;;;4.55;1.50;;;;;;;;;;5067318;28;20115;-49
2021/04/15 01:20:01;;;;;;;2.60;1.80;;;;;;;;;;5066191;28;21140;-47
2021/04/15 01:22:36;;;;;;;1.98;1.50;;;;;;;;;;5065415;28;20078;-50
2021/04/15 01:25:10;;;;;;;2.20;1.42;;;;;;;;;;5067001;28;20044;-50
2021/04/15 01:27:37;;;;;;;2.05;1.55;;;;;;;;;;5068146;28;20056;-50
2021/04/15 01:30:10;;;;;;;4.07;1.83;;;;;;;;;;5065766;28;20118;-49
2021/04/15 01:32:38;;;;;;;2.65;1.60;;;;;;;;;;5066759;28;20086;-47
2021/04/15 01:35:14;;;;;;;4.32;1.50;;;;;;;;;;5067790;28;20064;-48
2021/04/15 01:37:49;;;;;;;2.63;1.52;;;;;;;;;;5065618;28;20036;-48
2021/04/15 01:40:43;;;;;;;3.03;1.58;;;;;;;;;;5066464;28;20036;-51
2021/04/15 01:43:14;;;;;;;2.97;1.63;;;;;;;;;;5065300;28;20141;-50
2021/04/15 01:45:42;;;;;;;4.50;1.63;;;;;;;;;;5066349;28;20124;-47
2021/04/15 01:48:11;;;;;;;2.63;1.45;;;;;;;;;;5064893;28;20174;-47
2021/04/15 01:50:41;;;;;;;11.07;1.80;;;;;;;;;;5066236;28;20037;-48
2021/04/15 01:53:14;;;;;;;1.80;1.35;;;;;;;;;;5070950;28;20094;-49
2021/04/15 01:55:43;;;;;;;2.70;2.03;;;;;;;;;;5072226;28;20056;-50
2021/04/15 01:58:29;;;;;;;3.25;1.60;;;;;;;;;;5065278;28;20079;-49
2021/04/15 02:01:00;;;;;;;2.55;1.80;;;;;;;;;;5068304;28;20056;-48
2021/04/15 02:03:29;;;;;;;2.20;1.45;;;;;;;;;;5071193;28;20051;-51
2021/04/15 02:05:58;;;;;;;2.45;1.77;;;;;;;;;;5071184;28;20056;-48
2021/04/15 02:08:26;;;;;;;2.17;1.40;;;;;;;;;;5069746;28;20040;-51
2021/04/15 02:10:56;;;;;;;3.47;1.70;;;;;;;;;;5068479;28;20044;-50
2021/04/15 02:13:25;;;;;;;3.67;1.70;;;;;;;;;;5067812;28;20057;-47
2021/04/15 02:15:56;;;;;;;2.17;1.70;;;;;;;;;;5069775;28;20098;-48
2021/04/15 02:18:28;;;;;;;2.28;1.73;;;;;;;;;;5068759;28;20082;-48
2021/04/15 02:20:57;;;;;;;4.07;1.60;;;;;;;;;;5069042;28;20718;-51
2021/04/15 02:23:23;;;;;;;3.22;1.70;;;;;;;;;;5071132;28;20083;-49
2021/04/15 02:25:50;;;;;;;3.45;2.00;;;;;;;;;;5070318;28;20044;-47
2021/04/15 02:28:17;;;;;;;2.42;1.83;;;;;;;;;;5068372;28;20052;-49
2021/04/15 02:30:45;;;;;;;2.05;1.50;;;;;;;;;;5070347;28;20442;-48
2021/04/15 02:33:16;;;;;;;2.92;1.80;;;;;;;;;;5070107;28;20072;-52
2021/04/15 02:35:45;;;;;;;3.80;1.63;;;;;;;;;;5068995;28;20098;-48
2021/04/15 02:38:12;;;;;;;2.58;1.77;;;;;;;;;;5068397;28;20072;-49
2021/04/15 02:40:40;;;;;;;3.33;1.75;;;;;;;;;;5068646;28;20072;-47
2021/04/15 02:43:12;;;;;;;1.95;1.48;;;;;;;;;;5068405;28;20558;-47
2021/04/15 02:45:42;;;;;;;2.30;1.77;;;;;;;;;;5069083;28;20037;-48
2021/04/15 02:48:11;;;;;;;3.10;2.00;;;;;;;;;;5068785;28;20569;-48
2021/04/15 02:50:38;;;;;;;2.63;1.40;;;;;;;;;;5069412;28;20045;-46
2021/04/15 02:53:09;;;;;;;2.25;1.25;;;;;;;;;;5069352;28;20072;-48
2021/04/15 02:55:38;;;;;;;3.22;1.58;;;;;;;;;;5066655;28;20459;-51
2021/04/15 02:58:09;;;;;;;2.08;1.60;;;;;;;;;;5067551;28;20057;-51
2021/04/15 03:00:37;;;;;;;1.77;1.60;;;;;;;;;;5066884;28;20135;-47
2021/04/15 03:03:06;;;;;;;2.55;1.55;;;;;;;;;;5068501;28;20076;-48
2021/04/15 03:05:54;;;;;;;3.30;1.90;;;;;;;;;;5068294;28;20040;-47
2021/04/15 03:08:24;;;;;;;2.70;1.92;;;;;;;;;;5065697;28;20060;-48
2021/04/15 03:10:54;;;;;;;3.03;1.73;;;;;;;;;;5067567;28;20040;-50
2021/04/15 03:13:22;;;;;;;4.18;1.73;;;;;;;;;;5070228;28;20048;-48
2021/04/15 03:15:54;;;;;;;5.07;2.00;;;;;;;;;;5067859;28;20550;-49
2021/04/15 03:18:42;;;;;;;2.15;1.73;;;;;;;;;;5064018;28;20071;-47
2021/04/15 03:21:27;;;;;;;3.80;2.08;;;;;;;;;;5067447;28;20051;-47
2021/04/15 03:23:54;;;;;;;3.33;1.75;;;;;;;;;;5068278;28;20048;-47
2021/04/15 03:26:26;;;;;;;5.10;2.17;;;;;;;;;;5068685;28;20040;-51
2021/04/15 03:29:05;;;;;;;4.97;1.85;;;;;;;;;;5066500;28;20040;-48
2021/04/15 03:31:42;;;;;;;4.00;1.98;;;;;;;;;;5068132;28;20132;-50
2021/04/15 03:34:13;;;;;;;3.25;2.00;;;;;;;;;;5067216;28;20055;-49
2021/04/15 03:36:41;;;;;;;2.22;1.73;;;;;;;;;;5068460;28;20484;-50
2021/04/15 03:39:18;;;;;;;5.47;1.83;;;;;;;;;;5066987;28;20123;-49
2021/04/15 03:41:47;;;;;;;4.03;1.83;;;;;;;;;;5063860;28;20048;-48
2021/04/15 03:44:25;;;;;;;1.88;1.60;;;;;;;;;;5066594;28;20499;-48
2021/04/15 03:46:55;;;;;;;5.57;2.00;;;;;;;;;;5069167;28;20122;-47
2021/04/15 03:49:32;;;;;;;3.40;1.85;;;;;;;;;;5067664;28;20040;-50
2021/04/15 03:52:12;;;;;;;3.40;1.90;;;;;;;;;;5065649;28;20511;-47
2021/04/15 03:54:40;;;;;;;5.03;1.98;;;;;;;;;;5065506;28;20044;-47
2021/04/15 03:57:10;;;;;;;3.63;2.08;;;;;;;;;;5067593;28;20619;-49
2021/04/15 03:59:52;;;;;;;3.40;1.98;;;;;;;;;;5065711;28;20052;-47
2021/04/15 04:02:26;;;;;;;5.55;2.03;;;;;;;;;;5067250;28;20049;-50
2021/04/15 04:04:54;;;;;;;2.83;1.90;;;;;;;;;;5067422;28;20435;-48
2021/04/15 04:07:23;;;;;;;4.40;2.10;;;;;;;;;;5065085;28;20082;-49
2021/04/15 04:10:00;;;;;;;4.18;1.90;;;;;;;;;;5067647;28;20040;-49
2021/04/15 04:12:47;;;;;;;4.10;1.67;;;;;;;;;;5064496;28;20056;-49
2021/04/15 04:15:23;;;;;;;5.28;2.05;;;;;;;;;;5065529;28;20291;-49
2021/04/15 04:18:02;;;;;;;4.65;1.98;;;;;;;;;;5066314;28;20049;-52
2021/04/15 04:20:29;;;;;;;4.28;1.90;;;;;;;;;;5065848;28;20595;-51
2021/04/15 04:22:58;;;;;;;3.90;2.40;;;;;;;;;;5066789;28;20050;-49
2021/04/15 04:25:33;;;;;;;3.75;2.08;;;;;;;;;;5065675;28;20086;-48
2021/04/15 04:28:11;;;;;;;4.80;2.50;;;;;;;;;;5065640;28;21207;-48
2021/04/15 04:30:40;;;;;;;3.30;1.92;;;;;;;;;;5068160;28;20055;-47
2021/04/15 04:33:07;;;;;;;5.03;2.10;;;;;;;;;;5066630;28;20036;-50
2021/04/15 04:35:40;;;;;;;6.13;2.10;;;;;;;;;;5068224;28;20040;-48
2021/04/15 04:38:11;;;;;;;2.13;1.73;;;;;;;;;;5066891;28;20050;-50
2021/04/15 04:40:38;;;;;;;4.90;1.88;;;;;;;;;;5079557;28;20044;-51
2021/04/15 04:43:13;;;;;;;5.25;2.13;;;;;;;;;;5066287;28;20562;-48
2021/04/15 04:45:40;;;;;;;2.70;1.90;;;;;;;;;;5069283;28;20044;-47
2021/04/15 04:48:15;;;;;;;2.72;1.77;;;;;;;;;;5066743;28;20068;-47
2021/04/15 04:50:46;;;;;;;2.78;1.85;;;;;;;;;;5065632;28;20040;-47
2021/04/15 04:53:21;;;;;;;5.45;2.00;;;;;;;;;;5066526;28;20045;-48
2021/04/15 04:56:12;;;;;;;6.15;2.00;;;;;;;;;;5066494;28;20102;-47
2021/04/15 04:58:38;;;;;;;4.05;1.88;;;;;;;;;;5065999;28;20055;-47
2021/04/15 05:01:06;;;;;;;2.40;1.80;;;;;;;;;;5065033;28;20040;-49
2021/04/15 05:03:33;;;;;;;3.05;1.80;;;;;;;;;;5063970;28;20128;-53
2021/04/15 05:06:00;;;;;;;3.58;1.80;;;;;;;;;;5064567;28;20048;-48
2021/04/15 05:08:29;;;;;;;3.05;1.67;;;;;;;;;;5068436;28;20044;-52
2021/04/15 05:10:56;;;;;;;5.88;1.98;;;;;;;;;;5068285;28;20094;-49
2021/04/15 05:13:24;;;;;;;5.30;2.97;;;;;;;;;;5063153;28;20424;-49
2021/04/15 05:15:52;;;;;;;12.13;5.45;;;;;;;;;;5067165;28;20048;-53
2021/04/15 05:18:19;;;;;;;7.75;4.57;;;;;;;;;;5065584;28;20430;-51
2021/04/15 05:20:46;;;;;;;7.85;2.10;;;;;;;;;;5066686;28;20131;-53
2021/04/15 05:23:26;;;;;;;2.53;1.90;;;;;;;;;;5067592;28;20049;-52
2021/04/15 05:26:12;;;;;;;3.25;2.30;;;;;;;;;;5072012;28;20149;-50
2021/04/15 05:28:40;;;;;;;4.40;1.90;;;;;;;;;;5071828;28;20125;-47
2021/04/15 05:31:08;;;;;;;3.70;2.35;;;;;;;;;;5071510;28;20068;-47
2021/04/15 05:33:35;;;;;;;5.75;2.47;;;;;;;;;;5071999;28;20585;-51
2021/04/15 05:36:07;;;;;;;4.17;2.27;;;;;;;;;;5071437;28;20043;-52
2021/04/15 05:38:36;;;;;;;5.72;2.40;;;;;;;;;;5071498;28;20051;-52
2021/04/15 05:41:04;;;;;;;7.50;3.92;;;;;;;;;;5070766;28;20045;-51
2021/04/15 05:43:34;;;;;;;4.18;2.95;;;;;;;;;;5068960;28;20040;-52
2021/04/15 05:46:04;;;;;;;6.68;2.80;;;;;;;;;;5072845;28;20040;-51
2021/04/15 05:48:31;;;;;;;4.40;1.95;;;;;;;;;;5067388;28;20037;-50
2021/04/15 05:51:03;;;;;;;6.47;2.50;;;;;;;;;;5071158;28;20060;-50
2021/04/15 05:53:34;;;;;;;7.82;2.80;;;;;;;;;;5068494;28;20454;-48
2021/04/15 05:56:04;;;;;;;3.05;2.20;;;;;;;;;;5071394;28;20048;-50
2021/04/15 05:58:46;;;;;;;5.72;2.33;;;;;;;;;;5067805;28;20033;-53
2021/04/15 06:01:14;;;;;;;2.75;2.05;;;;;;;;;;5071548;28;20551;-53
2021/04/15 06:03:47;;;;;;;2.15;1.80;;;;;;;;;;5071048;28;20041;-53
2021/04/15 06:06:19;;;;;;;3.75;2.25;;;;;;;;;;5070873;28;20056;-53
2021/04/15 06:08:46;;;;;;;3.92;2.45;;;;;;;;;;5069837;28;20048;-50
2021/04/15 06:11:21;;;;;;;3.40;2.22;;;;;;;;;;5069839;28;20056;-51
2021/04/15 06:13:52;;;;;;;5.28;2.42;;;;;;;;;;5070468;28;20545;-52
2021/04/15 06:16:21;;;;;;;5.15;2.53;;;;;;;;;;5069175;28;20044;-49
2021/04/15 06:18:57;;;;;;;9.13;2.85;;;;;;;;;;5068598;28;20135;-53
2021/04/15 06:21:28;;;;;;;4.13;2.63;;;;;;;;;;5068958;28;20070;-50
2021/04/15 06:23:59;;;;;;;5.60;2.22;;;;;;;;;;5070867;28;20543;-50
2021/04/15 06:26:31;;;;;;;10.35;2.45;;;;;;;;;;5068314;28;20434;-49
2021/04/15 06:29:01;;;;;;;6.63;2.35;;;;;;;;;;5070722;28;20051;-50
2021/04/15 06:31:29;;;;;;;3.78;2.08;;;;;;;;;;5071246;28;20133;-51
2021/04/15 06:33:59;;;;;;;3.50;1.98;;;;;;;;;;5071216;28;20051;-50
2021/04/15 06:36:27;;;;;;;3.13;2.10;;;;;;;;;;5067601;28;20045;-51
2021/04/15 06:39:03;;;;;;;6.03;2.20;;;;;;;;;;5068842;28;20044;-51
2021/04/15 06:41:33;;;;;;;3.78;1.98;;;;;;;;;;5069358;28;20508;-53
2021/04/15 06:44:22;;;;;;;4.88;1.95;;;;;;;;;;5070263;28;20036;-53
2021/04/15 06:47:07;;;;;;;3.58;2.03;;;;;;;;;;5071485;28;20098;-53
2021/04/15 06:49:51;;;;;;;6.45;1.98;;;;;;;;;;5069023;28;20037;-51
2021/04/15 06:52:25;;;;;;;2.38;2.00;;;;;;;;;;5069693;28;20056;-48
2021/04/15 06:55:06;;;;;;;3.28;1.90;;;;;;;;;;5070687;28;20045;-49
2021/04/15 06:57:41;;;;;;;8.35;2.17;;;;;;;;;;5069950;28;20563;-51
2021/04/15 07:00:26;;;;;;;2.08;1.80;;;;;;;;;;5070730;28;20057;-52
2021/04/15 07:03:15;;;;;;;4.25;2.22;;;;;;;;;;5069010;28;20036;-51
2021/04/15 07:05:50;;;;;;;2.95;1.83;;;;;;;;;;5068685;28;20122;-51
2021/04/15 07:08:31;;;;;;;5.03;2.10;;;;;;;;;;5067754;28;20125;-53
2021/04/15 07:11:33;;;;;;;2.97;1.90;;;;;;;;;;5069778;28;20136;-48
2021/04/15 07:14:10;;;;;;;3.42;2.28;;;;;;;;;;5065777;28;20048;-54
2021/04/15 07:16:36;;;;;;;3.15;2.28;;;;;;;;;;5067913;28;20067;-49
2021/04/15 07:19:19;;;;;;;6.55;2.20;;;;;;;;;;5069842;28;20059;-49
2021/04/15 07:21:48;;;;;;;3.05;1.90;;;;;;;;;;5068594;28;20102;-51
2021/04/15 07:24:14;;;;;;;3.47;1.98;;;;;;;;;;5069434;28;20101;-53
2021/04/15 07:26:59;;;;;;;3.85;1.92;;;;;;;;;;5070283;28;20125;-52
2021/04/15 07:29:46;;;;;;;4.22;1.75;;;;;;;;;;5067776;28;20056;-52
2021/04/15 07:32:31;;;;;;;1.88;1.63;;;;;;;;;;5068947;28;20135;-51
2021/04/15 07:35:17;;;;;;;4.47;1.88;;;;;;;;;;5069577;28;20398;-55
2021/04/15 07:38:02;;;;;;;8.70;2.10;;;;;;;;;;5071597;28;20041;-54
2021/04/15 07:40:40;;;;;;;5.35;2.15;;;;;;;;;;5068399;28;20040;-51
2021/04/15 07:43:15;;;;;;;2.53;1.50;;;;;;;;;;5070227;28;20070;-53
2021/04/15 07:46:00;;;;;;;3.22;1.70;;;;;;;;;;5068998;28;20036;-50
2021/04/15 07:48:50;;;;;;;3.13;1.80;;;;;;;;;;5068626;28;20041;-54
2021/04/15 07:51:38;;;;;;;9.10;1.88;;;;;;;;;;5067071;28;20068;-52
2021/04/15 07:54:23;;;;;;;5.53;2.03;;;;;;;;;;5069501;28;20047;-51
2021/04/15 07:56:50;;;;;;;3.60;1.90;;;;;;;;;;5069353;28;20052;-50
2021/04/15 07:59:16;;;;;;;4.03;1.88;;;;;;;;;;5066772;28;20067;-53
2021/04/15 08:01:59;;;;;;;6.72;1.85;;;;;;;;;;5068150;28;20588;-51
2021/04/15 08:04:26;;;;;;;5.07;1.58;;;;;;;;;;5067880;28;20064;-49
2021/04/15 08:07:14;;;;;;;2.13;1.58;;;;;;;;;;5068258;28;20631;-49
2021/04/15 08:09:47;;;;;;;2.40;1.02;;;;;;;;;;5068248;28;20033;-50
2021/04/15 08:12:13;;;;;;;4.50;1.85;;;;;;;;;;5066368;28;20036;-51
2021/04/15 08:14:58;;;;;;;3.08;1.60;;;;;;;;;;5068773;28;20500;-53
2021/04/15 08:17:24;;;;;;;2.10;1.55;;;;;;;;;;5066249;28;20603;-52
2021/04/15 08:20:09;;;;;;;1.88;1.40;;;;;;;;;;5068585;28;20055;-49
2021/04/15 08:22:38;;;;;;;4.80;1.52;;;;;;;;;;5067632;28;20052;-54
2021/04/15 08:25:21;;;;;;;3.80;1.80;;;;;;;;;;5068376;28;20079;-53
2021/04/15 08:28:06;;;;;;;4.32;1.80;;;;;;;;;;5066579;28;20493;-54
2021/04/15 08:30:35;;;;;;;2.33;1.40;;;;;;;;;;5067051;28;20094;-54
2021/04/15 08:33:18;;;;;;;2.95;1.70;;;;;;;;;;5066981;28;20459;-50
2021/04/15 08:36:03;;;;;;;3.03;1.70;;;;;;;;;;5068476;28;20050;-53
2021/04/15 08:38:49;;;;;;;2.70;1.60;;;;;;;;;;5068573;28;20054;-52
2021/04/15 08:41:39;;;;;;;2.28;1.40;;;;;;;;;;5066186;28;20499;-53
2021/04/15 08:44:08;;;;;;;4.00;1.90;;;;;;;;;;5065439;28;20060;-53
2021/04/15 08:46:44;;;;;;;6.82;1.45;;;;;;;;;;5067776;28;20575;-51
2021/04/15 08:49:25;;;;;;;4.25;1.50;;;;;;;;;;5068169;28;20044;-51
2021/04/15 08:51:55;;;;;;;2.88;1.40;;;;;;;;;;5065553;28;20047;-54
2021/04/15 08:54:31;;;;;;;2.97;1.38;;;;;;;;;;5066848;28;20063;-53
2021/04/15 08:57:00;;;;;;;4.13;1.50;;;;;;;;;;5066528;28;20048;-49
2021/04/15 08:59:36;;;;;;;3.30;1.60;;;;;;;;;;5066916;28;20083;-52
2021/04/15 09:02:08;;;;;;;2.60;1.55;;;;;;;;;;5065289;28;20699;-53
2021/04/15 09:04:53;;;;;;;2.03;1.23;;;;;;;;;;5067618;28;20641;-51
2021/04/15 09:07:39;;;;;;;3.33;1.33;;;;;;;;;;5068071;28;20408;-52
2021/04/15 09:10:12;;;;;;;2.58;1.25;;;;;;;;;;5062209;28;20496;-53
2021/04/15 09:12:53;;;;;;;6.97;1.33;;;;;;;;;;5065302;28;20106;-51
2021/04/15 09:15:25;;;;;;;1.67;1.38;;;;;;;;;;5068156;28;20052;-50
2021/04/15 09:17:56;;;;;;;1.85;1.40;;;;;;;;;;5064191;28;20451;-50
2021/04/15 09:20:24;;;;;;;3.30;1.33;;;;;;;;;;5066833;28;20063;-51
2021/04/15 09:23:02;;;;;;;2.90;1.70;;;;;;;;;;5067686;28;20463;-49
2021/04/15 09:25:28;;;;;;;;;;;;;;;;;;5066962;28;20067;-52
2021/04/15 09:28:09;;;;;;;3.20;1.40;;;;;;;;;;5066776;28;20006;-50
2021/04/15 09:30:55;;;;;;;3.70;1.33;;;;;;;;;;5065528;28;20053;-49
2021/04/15 09:33:39;;;;;;;3.00;1.40;;;;;;;;;;5068370;28;20610;-51
2021/04/15 09:36:10;;;;;;;6.70;1.17;;;;;;;;;;5065678;28;20048;-53
2021/04/15 09:38:54;;;;;;;2.97;1.35;;;;;;;;;;5066054;28;20425;-50
2021/04/15 09:41:20;;;;;;;2.88;1.70;;;;;;;;;;5067441;28;20040;-47
2021/04/15 09:44:05;;;;;;;5.10;1.42;;;;;;;;;;5068343;28;20051;-48
2021/04/15 09:46:40;;;;;;;2.72;1.40;;;;;;;;;;5066268;28;20054;-52
2021/04/15 09:49:21;;;;;;;1.40;0.75;;;;;;;;;;5064529;28;20040;-50
2021/04/15 09:52:06;;;;;;;3.65;1.48;;;;;;;;;;5068046;28;20040;-51
2021/04/15 09:54:55;;;;;;;2.65;1.48;;;;;;;;;;5067481;28;20093;-47
2021/04/15 09:57:21;;;;;;;;;;;;;;;;;;5065809;28;20041;-49
2021/04/15 09:59:47;;;;;;;2.85;1.42;;;;;;;;;;5066953;28;19970;-53
2021/04/15 10:02:40;;;;;;;3.90;1.33;;;;;;;;;;5065887;28;20041;-51
2021/04/15 10:05:09;;;;;;;5.13;1.48;;;;;;;;;;5066564;28;20509;-48
2021/04/15 10:07:39;;;;;;;3.03;1.48;;;;;;;;;;5065734;28;20040;-51
2021/04/15 10:10:14;;;;;;;2.30;1.20;;;;;;;;;;5067479;28;20385;-49
2021/04/15 10:12:46;;;;;;;2.05;1.42;;;;;;;;;;5072217;28;20397;-50
2021/04/15 10:15:27;;;;;;;2.50;1.45;;;;;;;;;;5070873;28;20447;-52
2021/04/15 10:18:00;;;;;;;1.92;1.10;;;;;;;;;;5067554;28;20621;-48
2021/04/15 10:20:30;;;;;;;3.30;1.52;;;;;;;;;;5069986;28;20044;-51
2021/04/15 10:23:08;;;;;;;3.63;1.35;;;;;;;;;;5068608;28;20044;-48
2021/04/15 10:25:40;;;;;;;3.08;1.50;;;;;;;;;;5070634;28;20091;-51
2021/04/15 10:28:15;;;;;;;2.67;1.45;;;;;;;;;;5070632;28;20442;-50
2021/04/15 10:30:52;;;;;;;3.33;1.27;;;;;;;;;;5066996;28;20129;-49
2021/04/15 10:33:32;;;;;;;2.97;1.50;;;;;;;;;;5070162;28;20040;-49
2021/04/15 10:36:30;;;;;;;1.70;1.20;;;;;;;;;;5069367;28;20637;-51
2021/04/15 10:39:14;;;;;;;8.60;1.27;;;;;;;;;;5069856;28;20041;-49
2021/04/15 10:41:50;;;;;;;4.55;1.23;;;;;;;;;;5069460;28;20041;-51
2021/04/15 10:44:30;;;;;;;2.22;1.02;;;;;;;;;;5068352;28;20056;-51
2021/04/15 10:46:56;;;;;;;2.30;1.35;;;;;;;;;;5069826;28;20058;-52
2021/04/15 10:49:28;;;;;;;8.68;1.20;;;;;;;;;;5071099;28;20037;-47
2021/04/15 10:51:59;;;;;;;2.25;1.25;;;;;;;;;;5070710;28;20679;-53
2021/04/15 10:54:43;;;;;;;1.50;1.00;;;;;;;;;;5068674;28;20405;-52
2021/04/15 10:57:18;;;;;;;2.20;1.48;;;;;;;;;;5070926;28;20044;-50
2021/04/15 10:59:47;;;;;;;3.38;1.10;;;;;;;;;;5067953;28;20056;-51
2021/04/15 11:02:13;;;;;;;4.70;1.40;;;;;;;;;;5069829;28;20044;-53
2021/04/15 11:04:39;;;;;;;4.28;1.50;;;;;;;;;;5070767;28;20047;-51
2021/04/15 11:07:07;;;;;;;3.05;1.30;;;;;;;;;;5070864;28;20044;-49
2021/04/15 11:09:38;;;;;;;7.30;1.40;;;;;;;;;;5069202;28;20484;-49
2021/04/15 11:12:06;;;;;;;4.63;1.40;;;;;;;;;;5069822;28;20052;-47
2021/04/15 11:14:35;;;;;;;2.17;1.33;;;;;;;;;;5070070;28;20496;-48
2021/04/15 11:17:03;;;;;;;3.08;1.10;;;;;;;;;;5066703;28;20110;-50
2021/04/15 11:19:30;;;;;;;4.07;1.63;;;;;;;;;;5067899;28;20403;-50
2021/04/15 11:22:09;;;;;;;2.25;1.35;;;;;;;;;;5066764;28;20048;-48
2021/04/15 11:24:36;;;;;;;3.33;1.40;;;;;;;;;;5065943;28;20045;-48
2021/04/15 11:27:05;;;;;;;2.97;1.27;;;;;;;;;;5070329;28;20055;-50
2021/04/15 11:29:40;;;;;;;2.85;1.30;;;;;;;;;;5068219;28;20064;-50
2021/04/15 11:32:20;;;;;;;2.80;1.13;;;;;;;;;;5070028;28;20140;-50
2021/04/15 11:35:10;;;;;;;1.77;1.13;;;;;;;;;;5069582;28;20102;-47
2021/04/15 11:37:37;;;;;;;5.22;1.42;;;;;;;;;;5068023;28;20067;-50
2021/04/15 11:40:22;;;;;;;4.13;1.45;;;;;;;;;;5067965;28;20068;-51
2021/04/15 11:42:49;;;;;;;3.63;0.95;;;;;;;;;;5067859;28;20057;-48
2021/04/15 11:45:36;;;;;;;3.23;1.07;;;;;;;;;;5068115;28;20113;-52
2021/04/15 11:48:17;;;;;;;2.63;1.08;;;;;;;;;;5067497;28;20712;-49
2021/04/15 11:50:46;;;;;;;1.48;1.10;;;;;;;;;;5069403;28;20048;-49
2021/04/15 11:53:24;;;;;;;2.10;1.27;;;;;;;;;;5069374;28;20045;-50
2021/04/15 11:56:09;;;;;;;0.80;0.80;;;;;;;;;;5070331;28;20049;-50
2021/04/15 11:58:35;;;;;;;2.08;1.23;;;;;;;;;;5068721;28;20186;-53
2021/04/15 12:01:01;;;;;;;2.88;1.45;;;;;;;;;;5068618;28;20135;-49
2021/04/15 12:03:28;;;;;;;5.80;1.35;;;;;;;;;;5067871;28;20614;-50
2021/04/15 12:05:59;;;;;;;4.50;1.60;;;;;;;;;;5069638;28;20044;-49
2021/04/15 12:08:34;;;;;;;2.05;1.25;;;;;;;;;;5069064;28;20045;-51
2021/04/15 12:11:12;;;;;;;2.08;1.05;;;;;;;;;;5065476;28;20047;-48
2021/04/15 12:13:55;;;;;;;3.60;1.23;;;;;;;;;;5069194;28;20040;-51
2021/04/15 12:16:36;;;;;;;2.90;1.10;;;;;;;;;;5068300;28;20094;-47
2021/04/15 12:19:15;;;;;;;3.00;1.42;;;;;;;;;;5066484;28;20066;-52
2021/04/15 12:21:49;;;;;;;2.25;1.40;;;;;;;;;;5067531;28;20506;-48
2021/04/15 12:24:48;;;;;;;2.78;0.98;;;;;;;;;;5069362;28;20052;-51
2021/04/15 12:27:20;;;;;;;1.33;1.02;;;;;;;;;;5065628;28;20678;-52
2021/04/15 12:29:49;;;;;;;2.67;1.17;;;;;;;;;;5068546;28;20061;-52
2021/04/15 12:32:36;;;;;;;3.08;1.13;;;;;;;;;;5068323;28;20048;-49
2021/04/15 12:35:22;;;;;;;2.50;1.30;;;;;;;;;;5069002;28;20059;-52
2021/04/15 12:37:55;;;;;;;3.60;1.10;;;;;;;;;;5067592;28;20443;-51
2021/04/15 12:40:28;;;;;;;3.20;1.20;;;;;;;;;;5065438;28;20055;-48
2021/04/15 12:43:06;;;;;;;3.08;1.17;;;;;;;;;;5067331;28;20492;-49
2021/04/15 12:45:35;;;;;;;2.92;1.35;;;;;;;;;;5064650;28;20075;-52
2021/04/15 12:48:02;;;;;;;3.83;1.27;;;;;;;;;;5066601;28;20120;-47
2021/04/15 12:50:29;;;;;;;3.60;0.82;;;;;;;;;;5067038;28;20107;-51
2021/04/15 12:52:56;;;;;;;3.45;1.20;;;;;;;;;;5065049;28;20052;-53
2021/04/15 12:55:23;;;;;;;3.17;0.98;;;;;;;;;;5068956;28;20435;-50
2021/04/15 12:57:50;;;;;;;3.25;1.10;;;;;;;;;;5068997;28;20053;-53
2021/04/15 13:00:18;;;;;;;2.58;1.23;;;;;;;;;;5066139;28;20044;-50
2021/04/15 13:02:45;;;;;;;3.45;1.30;;;;;;;;;;5065330;28;20127;-52
2021/04/15 13:05:32;;;;;;;1.48;1.10;;;;;;;;;;5068257;28;20072;-53
2021/04/15 13:08:39;;;;;;;1.27;1.17;;;;;;;;;;5067275;28;20041;-50
2021/04/15 13:11:17;;;;;;;3.35;1.05;;;;;;;;;;5065584;28;20131;-48
2021/04/15 13:13:52;;;;;;;2.38;1.10;;;;;;;;;;5065595;28;20056;-49
2021/04/15 13:16:39;;;;;;;4.53;1.08;;;;;;;;;;5067559;28;20113;-52
2021/04/15 13:19:09;;;;;;;3.57;1.30;;;;;;;;;;5067945;28;20462;-49
2021/04/15 13:21:38;;;;;;;1.73;0.95;;;;;;;;;;5065542;28;20334;-53
2021/04/15 13:24:23;;;;;;;2.40;0.90;;;;;;;;;;5066849;28;20140;-53
2021/04/15 13:26:49;;;;;;;2.28;1.00;;;;;;;;;;5067772;28;20045;-50
2021/04/15 13:29:31;;;;;;;2.92;1.20;;;;;;;;;;5064676;28;20063;-50
2021/04/15 13:31:59;;;;;;;2.88;1.30;;;;;;;;;;5068501;28;20120;-52
2021/04/15 13:34:25;;;;;;;;;;;;;;;;;;5068202;28;20071;-50
2021/04/15 13:36:52;;;;;;;2.58;1.17;;;;;;;;;;5065985;28;20015;-49
2021/04/15 13:39:36;;;;;;;2.20;1.35;;;;;;;;;;5063692;28;20061;-49
2021/04/15 13:42:06;;;;;;;2.90;1.20;;;;;;;;;;5070112;28;20113;-51
2021/04/15 13:44:56;;;;;;;3.78;1.20;;;;;;;;;;5067396;28;20051;-49
2021/04/15 13:47:41;;;;;;;2.92;1.00;;;;;;;;;;5070886;28;20503;-49
2021/04/15 13:50:08;;;;;;;1.67;0.98;;;;;;;;;;5071839;28;20102;-47
2021/04/15 13:52:36;;;;;;;2.35;0.98;;;;;;;;;;5069387;28;20717;-49
2021/04/15 13:55:21;;;;;;;2.67;1.20;;;;;;;;;;5071630;28;20096;-51
2021/04/15 13:57:48;;;;;;;2.35;1.20;;;;;;;;;;5069626;28;20538;-51
2021/04/15 14:00:33;;;;;;;2.08;0.98;;;;;;;;;;5068645;28;20044;-50
2021/04/15 14:03:01;;;;;;;3.33;1.25;;;;;;;;;;5067530;28;20424;-48
2021/04/15 14:05:27;;;;;;;;;;;;;;;;;;5068651;28;20488;-48
2021/04/15 14:07:55;;;;;;;3.38;1.13;;;;;;;;;;5068248;28;19930;-48
2021/04/15 14:10:35;;;;;;;4.15;1.30;;;;;;;;;;5069389;28;20040;-48
2021/04/15 14:13:03;;;;;;;1.35;0.90;;;;;;;;;;5068377;28;20577;-52
2021/04/15 14:15:32;;;;;;;2.65;1.00;;;;;;;;;;5070250;28;20051;-49
2021/04/15 14:18:08;;;;;;;2.17;1.20;;;;;;;;;;5067244;28;20101;-47
2021/04/15 14:20:41;;;;;;;1.38;0.80;;;;;;;;;;5069146;28;20042;-50
2021/04/15 14:23:13;;;;;;;3.83;1.33;;;;;;;;;;5070205;28;20098;-50
2021/04/15 14:25:40;;;;;;;2.97;1.20;;;;;;;;;;5069441;28;20041;-48
2021/04/15 14:28:08;;;;;;;2.90;1.20;;;;;;;;;;5086726;28;20045;-50
2021/04/15 14:30:34;;;;;;;;;;;;;;;;;;5068444;28;20094;-49
2021/04/15 14:33:18;;;;;;;4.35;1.40;;;;;;;;;;5069460;28;19929;-52
2021/04/15 14:35:45;;;;;;;3.15;1.63;;;;;;;;;;5069953;28;20074;-48
2021/04/15 14:38:14;;;;;;;2.63;1.33;;;;;;;;;;5070138;28;20040;-49
2021/04/15 14:40:41;;;;;;;2.05;1.40;;;;;;;;;;5071277;28;20048;-47
2021/04/15 14:43:14;;;;;;;1.50;0.82;;;;;;;;;;5067199;28;20048;-51
2021/04/15 14:45:40;;;;;;;2.25;1.23;;;;;;;;;;5071701;28;20442;-52
2021/04/15 14:48:27;;;;;;;5.93;1.75;;;;;;;;;;5071003;28;20040;-49
2021/04/15 14:51:04;;;;;;;3.17;1.60;;;;;;;;;;5068192;28;20124;-50
2021/04/15 14:53:31;;;;;;;2.30;1.10;;;;;;;;;;5068000;28;20048;-51
2021/04/15 14:56:06;;;;;;;2.53;1.23;;;;;;;;;;5067727;28;20454;-49
2021/04/15 14:58:33;;;;;;;6.25;1.38;;;;;;;;;;5067450;28;20066;-48
2021/04/15 15:01:00;;;;;;;4.45;1.65;;;;;;;;;;5068976;28;20056;-48
2021/04/15 15:03:32;;;;;;;3.80;1.10;;;;;;;;;;5070268;28;20087;-50
2021/04/15 15:06:00;;;;;;;6.32;1.85;;;;;;;;;;5068237;28;20059;-50
2021/04/15 15:08:34;;;;;;;2.65;1.20;;;;;;;;;;5068437;28;20501;-49
2021/04/15 15:11:01;;;;;;;1.67;1.08;;;;;;;;;;5070196;28;20041;-52
2021/04/15 15:13:28;;;;;;;2.10;1.08;;;;;;;;;;5070772;28;20040;-52
2021/04/15 15:15:58;;;;;;;2.83;1.30;;;;;;;;;;5070318;28;20123;-50
2021/04/15 15:18:28;;;;;;;3.00;1.23;;;;;;;;;;5067091;28;20041;-47
2021/04/15 15:20:58;;;;;;;4.95;1.67;;;;;;;;;;5066397;28;20306;-47
2021/04/15 15:23:28;;;;;;;3.70;1.67;;;;;;;;;;5068661;28;20041;-50